aviador You're here:

KIPJ Decoded Metar

LINCOLNTON in NC, USA
Report Time2017-12-15 13:45:00
UTC Time2017-12-15 14:10:32
Flight Rules vfr VFR
Wind050° at 04 kt
W.Decomp.*RWY 05: 4.0 kt HW 0.4 kt RCW
W.Rank050° ranks 7
Current wind is below 050° avg. (5.5)
Visibility9999 m
Phenomena:N/A
Clouds:N/A
Expected CloudBase > 2,000 ft AGL from Temp-Dew spread
CeilingNone
Temp01°C (ISA -12)
Dew Point-4°C (70% RH)
AAT-2.9°C
QNH1015 hPa
Density Alt-617 ft
Elevation876 ft
Report Wrong Elevation
Raw Report
KIPJ 151345Z AUTO 05004KT 10SM CLR 01/M04 A2998 RMK AO2
T00131040=

Extra information for KIPJ:More info

Metar Taf Metar & Taf Last 4 Metars F.Rules Stats Wind Profile Meteogram Temp Stats Airport Information Weather charts Add Link Nearby VenuesMetar ALERT Operation Metar Decoded Social comments

AIRNAV info for KIPJ